createdAt,value
2022-11-18T00:06:38.080Z,75827.44
2022-11-18T00:16:42.465Z,75845.63
2022-11-18T00:26:50.120Z,75837.53
2022-11-18T00:36:52.250Z,75835.53
2022-11-18T00:46:57.047Z,75829.44
2022-11-18T00:57:00.336Z,75831.47
2022-11-18T01:07:04.970Z,75815.28
2022-11-18T01:17:07.165Z,75835.53
2022-11-18T01:27:10.598Z,75815.28
2022-11-18T01:37:17.345Z,75815.28
2022-11-18T01:47:21.231Z,75817.31
2022-11-18T01:57:27.893Z,75784.91
2022-11-18T02:07:30.253Z,75748.50
2022-11-18T02:18:22.236Z,75758.63
2022-11-18T02:28:29.598Z,75770.75
2022-11-18T02:38:41.341Z,75782.91
2022-11-18T02:48:50.267Z,75782.91
2022-11-18T02:58:57.632Z,75778.84
2022-11-18T03:09:05.311Z,75754.56
2022-11-18T03:19:36.059Z,75738.38
2022-11-18T03:29:45.453Z,75758.63
2022-11-18T03:39:54.258Z,75762.66
2022-11-18T03:50:15.090Z,75766.72
2022-11-18T04:00:18.159Z,75782.91
2022-11-18T04:10:22.592Z,75803.13
2022-11-18T04:20:25.113Z,75819.31
2022-11-18T04:30:27.666Z,75821.34
2022-11-18T04:40:29.901Z,75857.78
2022-11-18T04:50:32.086Z,75876.00
2022-11-18T05:00:36.671Z,75886.13
2022-11-18T05:10:39.102Z,75878.03
2022-11-18T05:20:42.087Z,75865.88
2022-11-18T05:30:46.504Z,75845.63
2022-11-18T05:40:48.877Z,75859.81
2022-11-18T05:50:52.838Z,75861.81
2022-11-18T06:00:58.713Z,75867.91
2022-11-18T06:11:07.127Z,75890.16
2022-11-18T06:21:11.657Z,75876.00
2022-11-18T06:31:19.081Z,75876.00
2022-11-18T06:41:21.143Z,75793.03
2022-11-18T06:51:27.638Z,75835.53
2022-11-18T07:01:41.607Z,75863.84
2022-11-18T07:11:48.579Z,75867.91
2022-11-18T07:21:53.566Z,75859.81
2022-11-18T07:32:00.490Z,75849.69
2022-11-18T07:42:06.332Z,75873.97
2022-11-18T07:52:10.627Z,75859.81
2022-11-18T08:02:15.679Z,75841.59
2022-11-18T08:12:17.873Z,75876.00
2022-11-18T08:22:20.946Z,75871.94
2022-11-18T08:32:29.151Z,75859.81
2022-11-18T08:42:34.634Z,75855.75
2022-11-18T08:52:37.358Z,75843.63
2022-11-18T09:02:45.421Z,75839.56
2022-11-18T09:12:50.841Z,75863.84
2022-11-18T09:22:58.768Z,75851.72
2022-11-18T09:33:07.385Z,75865.88
2022-11-18T09:43:21.871Z,75878.03
2022-11-18T09:53:29.690Z,75880.03
2022-11-18T10:03:34.413Z,75847.66
2022-11-18T10:13:57.051Z,75849.69
2022-11-18T10:24:21.640Z,75827.44
2022-11-18T10:34:30.703Z,75817.31
2022-11-18T10:44:41.726Z,75839.56
2022-11-18T10:55:06.325Z,75859.81
2022-11-18T11:05:21.104Z,75876.00
2022-11-18T11:15:34.696Z,75871.94
2022-11-18T11:36:39.901Z,75863.84
2022-11-18T11:47:26.745Z,75819.31
2022-11-18T11:58:02.444Z,75815.28
2022-11-18T12:08:09.133Z,75786.94
2022-11-18T12:18:25.731Z,75786.94
2022-11-18T12:28:49.171Z,75786.94
2022-11-18T12:38:53.635Z,75788.97
2022-11-18T12:48:55.666Z,75791.00
2022-11-18T12:59:01.211Z,75780.88
2022-11-18T13:09:13.013Z,75805.16
2022-11-18T13:19:22.913Z,75811.22
2022-11-18T13:29:53.673Z,75807.19
2022-11-18T13:39:59.291Z,75813.25
2022-11-18T13:50:22.644Z,75809.22
2022-11-18T14:00:32.216Z,75855.75
2022-11-18T14:10:44.392Z,75847.66
2022-11-18T14:20:55.629Z,75843.63
2022-11-18T14:31:20.709Z,75882.06
2022-11-18T14:41:46.710Z,75908.38
2022-11-18T14:51:52.071Z,75908.38
2022-11-18T15:01:54.251Z,75930.63
2022-11-18T15:11:59.253Z,75922.53
2022-11-18T15:22:03.603Z,75948.84
2022-11-18T15:32:08.789Z,76005.53
2022-11-18T15:42:23.094Z,76048.03
2022-11-18T15:52:28.618Z,76066.25
2022-11-18T16:02:35.995Z,76104.69
2022-11-18T16:12:47.129Z,76145.19
2022-11-18T16:22:54.548Z,76189.72
2022-11-18T16:32:59.118Z,76159.34
2022-11-18T16:43:06.387Z,76183.63
2022-11-18T16:53:10.485Z,76167.44
2022-11-18T17:03:12.756Z,76189.72
2022-11-18T17:13:14.862Z,76187.69
2022-11-18T17:23:20.200Z,76179.59
2022-11-18T17:33:26.762Z,76173.53
2022-11-18T17:43:29.307Z,76187.69
2022-11-18T17:53:32.946Z,76199.81
2022-11-18T18:03:40.775Z,76179.59
2022-11-18T18:14:03.124Z,76193.75
2022-11-18T18:24:06.851Z,76187.69
2022-11-18T18:34:11.219Z,76191.72
2022-11-18T18:44:18.957Z,76216.03
2022-11-18T18:54:26.005Z,76220.06
2022-11-18T19:04:34.584Z,76220.06
2022-11-18T19:14:39.267Z,76220.06
2022-11-18T19:24:49.598Z,76232.22
2022-11-18T19:34:53.624Z,76228.16
2022-11-18T19:45:02.798Z,76276.75
2022-11-18T19:55:06.134Z,76274.72
2022-11-18T20:05:28.219Z,76276.75
2022-11-18T20:15:31.357Z,76284.84
2022-11-18T20:25:40.170Z,76313.19
2022-11-18T20:35:44.635Z,76305.09
2022-11-18T20:45:56.142Z,76284.84
2022-11-18T20:56:07.564Z,76294.97
2022-11-18T21:06:14.214Z,76309.13
2022-11-18T21:16:16.904Z,76305.09
2022-11-18T21:26:18.926Z,76339.50
2022-11-18T21:36:24.290Z,76339.50
2022-11-18T21:46:31.444Z,76349.63
2022-11-18T21:56:36.187Z,76299.00
2022-11-18T22:06:40.896Z,76363.78
2022-11-18T22:16:51.480Z,76394.16
2022-11-18T22:26:56.210Z,76382.00
2022-11-18T22:36:58.177Z,76398.19
2022-11-18T22:47:02.573Z,76402.25
2022-11-18T22:57:12.236Z,76382.00
2022-11-18T23:07:21.221Z,76365.81
2022-11-18T23:17:25.626Z,76341.50
2022-11-18T23:27:29.954Z,76331.41
2022-11-18T23:37:34.219Z,76329.38
2022-11-18T23:47:41.615Z,76386.03
2022-11-18T23:57:48.610Z,76369.84
